This is the latest recevied weather packets stored in our database for station/object N4ZIQ. If no packets are shown the sender has not sent any weather packets the latest 10 day(s).
| Time | Temp. | Humidity | Pressure | Rain* | Wind** | Luminosity | Snow |
|---|---|---|---|---|---|---|---|
| 1777918844 | 26.67° C | 57% | 1016.7 hPa | 0 mm | - | 914 W/m² | - |
| 1777918553 | 26.11° C | 58% | 1016.8 hPa | 0 mm | - | 928 W/m² | - |
| 1777918245 | 25° C | 60% | 1017 hPa | 0 mm | - | 429 W/m² | - |
| 1777917945 | 25.56° C | 59% | 1017.1 hPa | 0 mm | - | 369 W/m² | - |
| 1777917650 | 25.56° C | 61% | 1017 hPa | 0 mm | - | 367 W/m² | - |
| 1777917346 | 25° C | 60% | 1017 hPa | 0 mm | - | 301 W/m² | - |
| 1777917045 | 26.11° C | 57% | 1017 hPa | 0 mm | - | 336 W/m² | - |
| 1777916748 | 25.56° C | 59% | 1017.1 hPa | 0 mm | - | 1079 W/m² | - |
| 1777916444 | 25.56° C | 59% | 1017.1 hPa | 0 mm | - | 350 W/m² | - |
| 1777916147 | 26.67° C | 57% | 1017.1 hPa | 0 mm | - | 951 W/m² | - |
| 1777915852 | 26.67° C | 58% | 1017.1 hPa | 0 mm | - | 1028 W/m² | - |
| 1777915544 | 25.56° C | 61% | 1017.1 hPa | 0 mm | - | 418 W/m² | - |
| 1777915245 | 25.56° C | 59% | 1017.1 hPa | 0 mm | - | 932 W/m² | - |
| 1777914953 | 25.56° C | 61% | 1017.2 hPa | 0 mm | - | 522 W/m² | - |
| 1777914645 | 25° C | 60% | 1017.3 hPa | 0 mm | - | 341 W/m² | - |
| 1777914345 | 25.56° C | 59% | 1017.2 hPa | 0 mm | - | 397 W/m² | - |
| 1777914054 | 25.56° C | 58% | 1017.2 hPa | 0 mm | - | 387 W/m² | - |
| 1777913745 | 25° C | 60% | 1017.2 hPa | 0 mm | - | 380 W/m² | - |
| 1777913445 | 25.56° C | 60% | 1017.2 hPa | 0 mm | - | 476 W/m² | - |
| 1777913159 | 26.11° C | 58% | 1017.4 hPa | 0 mm | - | 329 W/m² | - |
| 1777912845 | 25.56° C | 62% | 1017.3 hPa | 0 mm | - | 995 W/m² | - |
| 1777912545 | 25° C | 61% | 1017.3 hPa | 0 mm | - | 459 W/m² | - |
| 1777912255 | 25.56° C | 58% | 1017.4 hPa | 0 mm | - | 316 W/m² | - |
| 1777911945 | 26.11° C | 58% | 1017.4 hPa | 0 mm | - | 1018 W/m² | - |
| 1777911643 | 26.67° C | 57% | 1017.4 hPa | 0 mm | - | 1011 W/m² | - |
* Rain latest hour (hover to see other rain measurements)
** Current wind speed in m/s (hover to see current wind gust speed)